Skip Navigation LinksHome page > Weather > Current weather Skip Navigation Links

Current Weather

Central Park, New York

For information only: do not use for flight planning or navigation.
Latest weather
Observation time Thursday, May 26, 2016 1:51 PM EDT
Local time Thursday, May 26, 2016 2:21 PM EDT
Flight conditions Visual Meteorological Conditions
Winds
Wind direction variable
Wind speed 5 mph
Visibility 8 mi.
Sky condition
Ceiling unlimited
Sky clear
Temperature 89°F
Dewpoint 48°F
Altimeter 30.07 in.Hg
Pressure change last 3 hours0.04 in.Hg
Pressure falling more quickly
Derived measurements
Relative humidity 24%
Heat index 89°F
Density altitude 2062 ft.
Sea-level pressure 30.04 in.Hg
Climate data
Temperature minimum, last 6 hours 74°F
Temperature maximum, last 6 hours 90°F
Remarks
Fully automated report.
System requires maintenance.
Automated weather observing station with precipitation discriminator.
METAR KNYC 261751Z AUTO VRB04KT 8SM CLR 32/09 A3007 RMK AO2 SLP172 T03170089 10322 20233 58015 $

Settings

Location code

InnerDrive.Weather 4.0.5722.1 Release CLR 4.0.30319.34209
Copyright ©2015 Inner Drive Technology. All rights reserved. Portions Copyright ©1986-2015 David Braverman.

Find weather

Site navigation


Skip Navigation Links

Place info

Page info

PayPal - The safer, easier way to pay online!

Return home.

Copyright ©2016 Inner Drive Technology. Purveyors of fine, hand-crafted computer software. Page printed 2016-05-26T18:21:50 UTC.